sensor_id;sensor_type;location;lat;lon;timestamp;P1;durP1;ratioP1;P2;durP2;ratioP2
35257;SDS011;21385;50.878;8.050;2023-05-20T00:00:52;0.73;;;0.73;;
35257;SDS011;21385;50.878;8.050;2023-05-20T00:03:18;1.27;;;1.10;;
35257;SDS011;21385;50.878;8.050;2023-05-20T00:05:44;1.25;;;0.80;;
35257;SDS011;21385;50.878;8.050;2023-05-20T00:08:10;0.80;;;0.80;;
35257;SDS011;21385;50.878;8.050;2023-05-20T00:10:36;1.38;;;1.27;;
35257;SDS011;21385;50.878;8.050;2023-05-20T00:13:02;0.93;;;0.80;;
35257;SDS011;21385;50.878;8.050;2023-05-20T00:15:28;2.88;;;0.50;;
35257;SDS011;21385;50.878;8.050;2023-05-20T00:17:54;1.05;;;0.80;;
35257;SDS011;21385;50.878;8.050;2023-05-20T00:20:20;1.33;;;1.23;;
35257;SDS011;21385;50.878;8.050;2023-05-20T00:22:46;2.05;;;1.48;;
35257;SDS011;21385;50.878;8.050;2023-05-20T00:25:11;3.50;;;1.20;;
35257;SDS011;21385;50.878;8.050;2023-05-20T00:27:39;1.42;;;1.33;;
35257;SDS011;21385;50.878;8.050;2023-05-20T00:30:05;7.28;;;1.40;;
35257;SDS011;21385;50.878;8.050;2023-05-20T00:32:31;1.52;;;1.42;;
35257;SDS011;21385;50.878;8.050;2023-05-20T00:34:58;0.90;;;0.90;;
35257;SDS011;21385;50.878;8.050;2023-05-20T00:37:24;1.20;;;1.00;;
35257;SDS011;21385;50.878;8.050;2023-05-20T00:39:50;1.20;;;0.80;;
35257;SDS011;21385;50.878;8.050;2023-05-20T00:42:20;1.48;;;1.23;;
35257;SDS011;21385;50.878;8.050;2023-05-20T00:44:45;1.20;;;1.10;;
35257;SDS011;21385;50.878;8.050;2023-05-20T00:47:11;0.77;;;0.77;;
35257;SDS011;21385;50.878;8.050;2023-05-20T00:49:37;1.10;;;1.00;;
35257;SDS011;21385;50.878;8.050;2023-05-20T00:52:03;0.85;;;0.85;;
35257;SDS011;21385;50.878;8.050;2023-05-20T00:54:29;5.97;;;1.17;;
35257;SDS011;21385;50.878;8.050;2023-05-20T00:56:56;2.78;;;1.35;;
35257;SDS011;21385;50.878;8.050;2023-05-20T00:59:23;0.77;;;0.70;;
35257;SDS011;21385;50.878;8.050;2023-05-20T01:01:50;3.50;;;1.02;;
35257;SDS011;21385;50.878;8.050;2023-05-20T01:04:16;2.78;;;1.42;;
35257;SDS011;21385;50.878;8.050;2023-05-20T01:06:42;1.52;;;0.73;;
35257;SDS011;21385;50.878;8.050;2023-05-20T01:09:10;1.23;;;1.13;;
35257;SDS011;21385;50.878;8.050;2023-05-20T01:11:43;3.13;;;1.30;;
35257;SDS011;21385;50.878;8.050;2023-05-20T01:14:14;1.27;;;1.10;;
35257;SDS011;21385;50.878;8.050;2023-05-20T01:16:42;1.80;;;1.27;;
35257;SDS011;21385;50.878;8.050;2023-05-20T01:19:26;1.08;;;0.85;;
35257;SDS011;21385;50.878;8.050;2023-05-20T01:21:58;1.30;;;1.20;;
35257;SDS011;21385;50.878;8.050;2023-05-20T01:24:25;3.75;;;1.00;;
35257;SDS011;21385;50.878;8.050;2023-05-20T01:26:51;1.48;;;1.13;;
35257;SDS011;21385;50.878;8.050;2023-05-20T01:29:16;1.77;;;1.08;;
35257;SDS011;21385;50.878;8.050;2023-05-20T01:31:42;1.00;;;0.77;;
35257;SDS011;21385;50.878;8.050;2023-05-20T01:34:10;1.38;;;1.00;;
35257;SDS011;21385;50.878;8.050;2023-05-20T01:36:37;0.80;;;0.70;;
35257;SDS011;21385;50.878;8.050;2023-05-20T01:39:04;1.10;;;0.93;;
35257;SDS011;21385;50.878;8.050;2023-05-20T01:41:30;1.73;;;1.08;;
35257;SDS011;21385;50.878;8.050;2023-05-20T01:43:58;2.78;;;1.30;;
35257;SDS011;21385;50.878;8.050;2023-05-20T01:46:24;4.50;;;1.27;;
35257;SDS011;21385;50.878;8.050;2023-05-20T01:48:50;1.45;;;1.23;;
35257;SDS011;21385;50.878;8.050;2023-05-20T01:51:15;0.73;;;0.73;;
35257;SDS011;21385;50.878;8.050;2023-05-20T01:53:41;2.40;;;0.95;;
35257;SDS011;21385;50.878;8.050;2023-05-20T01:56:07;2.25;;;1.35;;
35257;SDS011;21385;50.878;8.050;2023-05-20T01:58:32;2.13;;;1.55;;
35257;SDS011;21385;50.878;8.050;2023-05-20T02:00:58;1.40;;;1.30;;
35257;SDS011;21385;50.878;8.050;2023-05-20T02:03:24;0.80;;;0.80;;
35257;SDS011;21385;50.878;8.050;2023-05-20T02:05:49;3.25;;;0.98;;
35257;SDS011;21385;50.878;8.050;2023-05-20T02:08:15;0.80;;;0.80;;
35257;SDS011;21385;50.878;8.050;2023-05-20T02:10:41;0.95;;;0.95;;
35257;SDS011;21385;50.878;8.050;2023-05-20T02:13:06;1.42;;;1.33;;
35257;SDS011;21385;50.878;8.050;2023-05-20T02:15:32;2.03;;;1.00;;
35257;SDS011;21385;50.878;8.050;2023-05-20T02:17:57;1.60;;;1.30;;
35257;SDS011;21385;50.878;8.050;2023-05-20T02:20:23;1.23;;;0.63;;
35257;SDS011;21385;50.878;8.050;2023-05-20T02:22:48;1.25;;;1.00;;
35257;SDS011;21385;50.878;8.050;2023-05-20T02:25:14;1.20;;;1.10;;
35257;SDS011;21385;50.878;8.050;2023-05-20T02:27:40;2.10;;;0.70;;
35257;SDS011;21385;50.878;8.050;2023-05-20T02:30:05;2.30;;;0.68;;
35257;SDS011;21385;50.878;8.050;2023-05-20T02:32:32;2.55;;;1.38;;
35257;SDS011;21385;50.878;8.050;2023-05-20T02:34:57;2.88;;;1.15;;
35257;SDS011;21385;50.878;8.050;2023-05-20T02:37:23;1.52;;;1.30;;
35257;SDS011;21385;50.878;8.050;2023-05-20T02:39:49;0.70;;;0.70;;
35257;SDS011;21385;50.878;8.050;2023-05-20T02:42:14;1.45;;;0.88;;
35257;SDS011;21385;50.878;8.050;2023-05-20T02:44:40;7.25;;;1.40;;
35257;SDS011;21385;50.878;8.050;2023-05-20T02:47:05;1.45;;;1.27;;
35257;SDS011;21385;50.878;8.050;2023-05-20T02:49:31;1.42;;;1.10;;
35257;SDS011;21385;50.878;8.050;2023-05-20T02:51:57;1.45;;;1.20;;
35257;SDS011;21385;50.878;8.050;2023-05-20T02:54:22;2.50;;;0.90;;
35257;SDS011;21385;50.878;8.050;2023-05-20T02:56:48;3.30;;;1.10;;
35257;SDS011;21385;50.878;8.050;2023-05-20T02:59:13;1.42;;;1.05;;
35257;SDS011;21385;50.878;8.050;2023-05-20T03:01:39;1.00;;;0.98;;
35257;SDS011;21385;50.878;8.050;2023-05-20T03:04:05;3.25;;;1.23;;
35257;SDS011;21385;50.878;8.050;2023-05-20T03:06:31;1.48;;;0.93;;
35257;SDS011;21385;50.878;8.050;2023-05-20T03:08:57;1.83;;;1.50;;
35257;SDS011;21385;50.878;8.050;2023-05-20T03:11:23;1.83;;;0.93;;
35257;SDS011;21385;50.878;8.050;2023-05-20T03:13:49;3.05;;;1.90;;
35257;SDS011;21385;50.878;8.050;2023-05-20T03:16:15;1.85;;;1.08;;
35257;SDS011;21385;50.878;8.050;2023-05-20T03:18:41;0.93;;;0.93;;
35257;SDS011;21385;50.878;8.050;2023-05-20T03:21:07;1.02;;;0.82;;
35257;SDS011;21385;50.878;8.050;2023-05-20T03:23:33;1.50;;;1.40;;
35257;SDS011;21385;50.878;8.050;2023-05-20T03:25:58;4.38;;;1.58;;
35257;SDS011;21385;50.878;8.050;2023-05-20T03:28:24;1.98;;;1.38;;
35257;SDS011;21385;50.878;8.050;2023-05-20T03:30:50;2.22;;;1.38;;
35257;SDS011;21385;50.878;8.050;2023-05-20T03:33:16;1.98;;;1.13;;
35257;SDS011;21385;50.878;8.050;2023-05-20T03:35:41;3.10;;;1.10;;
35257;SDS011;21385;50.878;8.050;2023-05-20T03:38:07;1.42;;;1.33;;
35257;SDS011;21385;50.878;8.050;2023-05-20T03:40:32;2.53;;;1.55;;
35257;SDS011;21385;50.878;8.050;2023-05-20T03:42:58;4.25;;;1.05;;
35257;SDS011;21385;50.878;8.050;2023-05-20T03:45:23;2.63;;;1.42;;
35257;SDS011;21385;50.878;8.050;2023-05-20T03:47:49;1.15;;;1.02;;
35257;SDS011;21385;50.878;8.050;2023-05-20T03:50:15;1.75;;;1.40;;
35257;SDS011;21385;50.878;8.050;2023-05-20T03:52:41;1.63;;;1.45;;
35257;SDS011;21385;50.878;8.050;2023-05-20T03:55:07;1.63;;;1.52;;
35257;SDS011;21385;50.878;8.050;2023-05-20T03:57:33;0.88;;;0.88;;
35257;SDS011;21385;50.878;8.050;2023-05-20T04:00:00;3.17;;;1.50;;
35257;SDS011;21385;50.878;8.050;2023-05-20T04:02:26;10.70;;;1.40;;
35257;SDS011;21385;50.878;8.050;2023-05-20T04:04:52;1.27;;;1.13;;
35257;SDS011;21385;50.878;8.050;2023-05-20T04:07:17;2.55;;;1.55;;
35257;SDS011;21385;50.878;8.050;2023-05-20T04:09:43;2.15;;;1.67;;
35257;SDS011;21385;50.878;8.050;2023-05-20T04:12:09;3.72;;;1.85;;
35257;SDS011;21385;50.878;8.050;2023-05-20T04:14:35;1.67;;;0.70;;
35257;SDS011;21385;50.878;8.050;2023-05-20T04:17:04;1.45;;;1.35;;
35257;SDS011;21385;50.878;8.050;2023-05-20T04:19:30;2.25;;;1.20;;
35257;SDS011;21385;50.878;8.050;2023-05-20T04:21:55;1.30;;;1.20;;
35257;SDS011;21385;50.878;8.050;2023-05-20T04:24:21;1.15;;;1.02;;
35257;SDS011;21385;50.878;8.050;2023-05-20T04:26:51;1.30;;;1.20;;
35257;SDS011;21385;50.878;8.050;2023-05-20T04:29:17;1.35;;;0.90;;
35257;SDS011;21385;50.878;8.050;2023-05-20T04:31:44;1.52;;;1.42;;
35257;SDS011;21385;50.878;8.050;2023-05-20T04:34:10;1.30;;;1.10;;
35257;SDS011;21385;50.878;8.050;2023-05-20T04:36:36;1.80;;;1.45;;
35257;SDS011;21385;50.878;8.050;2023-05-20T04:39:02;5.00;;;2.00;;
35257;SDS011;21385;50.878;8.050;2023-05-20T04:41:29;2.25;;;1.45;;
35257;SDS011;21385;50.878;8.050;2023-05-20T04:43:55;3.55;;;1.65;;
35257;SDS011;21385;50.878;8.050;2023-05-20T04:46:24;1.98;;;1.23;;
35257;SDS011;21385;50.878;8.050;2023-05-20T04:48:50;0.93;;;0.93;;
35257;SDS011;21385;50.878;8.050;2023-05-20T04:51:17;1.30;;;1.00;;
35257;SDS011;21385;50.878;8.050;2023-05-20T04:53:43;3.70;;;1.67;;
35257;SDS011;21385;50.878;8.050;2023-05-20T04:56:09;2.55;;;1.33;;
35257;SDS011;21385;50.878;8.050;2023-05-20T04:58:35;4.78;;;1.48;;
35257;SDS011;21385;50.878;8.050;2023-05-20T05:01:01;1.90;;;1.48;;
35257;SDS011;21385;50.878;8.050;2023-05-20T05:03:26;2.45;;;1.42;;
35257;SDS011;21385;50.878;8.050;2023-05-20T05:05:58;2.72;;;1.23;;
35257;SDS011;21385;50.878;8.050;2023-05-20T05:08:24;1.25;;;1.15;;
35257;SDS011;21385;50.878;8.050;2023-05-20T05:10:50;1.52;;;1.42;;
35257;SDS011;21385;50.878;8.050;2023-05-20T05:13:16;2.25;;;1.20;;
35257;SDS011;21385;50.878;8.050;2023-05-20T05:15:42;1.75;;;1.48;;
35257;SDS011;21385;50.878;8.050;2023-05-20T05:18:07;1.55;;;1.45;;
35257;SDS011;21385;50.878;8.050;2023-05-20T05:20:33;1.77;;;1.23;;
35257;SDS011;21385;50.878;8.050;2023-05-20T05:22:59;2.00;;;1.38;;
35257;SDS011;21385;50.878;8.050;2023-05-20T05:25:24;1.85;;;1.25;;
35257;SDS011;21385;50.878;8.050;2023-05-20T05:27:50;1.08;;;1.02;;
35257;SDS011;21385;50.878;8.050;2023-05-20T05:30:15;1.45;;;1.35;;
35257;SDS011;21385;50.878;8.050;2023-05-20T05:32:41;1.85;;;1.38;;
35257;SDS011;21385;50.878;8.050;2023-05-20T05:35:07;1.15;;;1.05;;
35257;SDS011;21385;50.878;8.050;2023-05-20T05:37:33;1.63;;;1.25;;
35257;SDS011;21385;50.878;8.050;2023-05-20T05:39:58;1.35;;;1.20;;
35257;SDS011;21385;50.878;8.050;2023-05-20T05:42:24;2.03;;;1.23;;
35257;SDS011;21385;50.878;8.050;2023-05-20T05:44:50;1.50;;;1.40;;
35257;SDS011;21385;50.878;8.050;2023-05-20T05:47:15;2.58;;;1.63;;
35257;SDS011;21385;50.878;8.050;2023-05-20T05:49:41;1.17;;;1.08;;
35257;SDS011;21385;50.878;8.050;2023-05-20T05:52:07;6.95;;;1.98;;
35257;SDS011;21385;50.878;8.050;2023-05-20T05:54:32;1.75;;;1.30;;
35257;SDS011;21385;50.878;8.050;2023-05-20T05:56:58;2.47;;;1.35;;
35257;SDS011;21385;50.878;8.050;2023-05-20T05:59:24;1.40;;;1.27;;
35257;SDS011;21385;50.878;8.050;2023-05-20T06:01:49;1.67;;;1.58;;
35257;SDS011;21385;50.878;8.050;2023-05-20T06:04:15;4.80;;;1.27;;
35257;SDS011;21385;50.878;8.050;2023-05-20T06:06:41;2.13;;;1.23;;
35257;SDS011;21385;50.878;8.050;2023-05-20T06:09:06;2.60;;;1.70;;
35257;SDS011;21385;50.878;8.050;2023-05-20T06:11:32;1.73;;;1.23;;
35257;SDS011;21385;50.878;8.050;2023-05-20T06:13:58;3.53;;;1.70;;
35257;SDS011;21385;50.878;8.050;2023-05-20T06:16:24;2.15;;;1.83;;
35257;SDS011;21385;50.878;8.050;2023-05-20T06:18:50;3.15;;;1.77;;
35257;SDS011;21385;50.878;8.050;2023-05-20T06:21:17;2.78;;;1.85;;
35257;SDS011;21385;50.878;8.050;2023-05-20T06:23:42;2.38;;;1.45;;
35257;SDS011;21385;50.878;8.050;2023-05-20T06:26:08;5.07;;;1.38;;
35257;SDS011;21385;50.878;8.050;2023-05-20T06:28:34;2.05;;;1.73;;
35257;SDS011;21385;50.878;8.050;2023-05-20T06:30:59;2.08;;;1.80;;
35257;SDS011;21385;50.878;8.050;2023-05-20T06:33:26;3.75;;;2.08;;
35257;SDS011;21385;50.878;8.050;2023-05-20T06:35:53;1.40;;;1.30;;
35257;SDS011;21385;50.878;8.050;2023-05-20T06:38:19;3.08;;;1.40;;
35257;SDS011;21385;50.878;8.050;2023-05-20T06:40:45;4.60;;;1.50;;
35257;SDS011;21385;50.878;8.050;2023-05-20T06:43:12;2.33;;;1.85;;
35257;SDS011;21385;50.878;8.050;2023-05-20T06:45:38;2.22;;;1.63;;
35257;SDS011;21385;50.878;8.050;2023-05-20T06:48:04;3.03;;;1.55;;
35257;SDS011;21385;50.878;8.050;2023-05-20T06:50:30;1.80;;;1.27;;
35257;SDS011;21385;50.878;8.050;2023-05-20T06:52:55;7.30;;;1.20;;
35257;SDS011;21385;50.878;8.050;2023-05-20T06:55:21;2.80;;;1.38;;
35257;SDS011;21385;50.878;8.050;2023-05-20T06:57:46;1.45;;;1.35;;
35257;SDS011;21385;50.878;8.050;2023-05-20T07:00:12;1.98;;;1.50;;
35257;SDS011;21385;50.878;8.050;2023-05-20T07:02:38;2.15;;;1.77;;
35257;SDS011;21385;50.878;8.050;2023-05-20T07:05:04;3.38;;;1.83;;
35257;SDS011;21385;50.878;8.050;2023-05-20T07:07:30;3.80;;;1.83;;
35257;SDS011;21385;50.878;8.050;2023-05-20T07:09:56;2.80;;;2.00;;
35257;SDS011;21385;50.878;8.050;2023-05-20T07:12:22;2.45;;;1.58;;
35257;SDS011;21385;50.878;8.050;2023-05-20T07:14:48;3.08;;;1.85;;
35257;SDS011;21385;50.878;8.050;2023-05-20T07:17:13;2.95;;;1.73;;
35257;SDS011;21385;50.878;8.050;2023-05-20T07:19:39;2.13;;;1.63;;
35257;SDS011;21385;50.878;8.050;2023-05-20T07:22:05;1.58;;;1.42;;
35257;SDS011;21385;50.878;8.050;2023-05-20T07:24:30;1.50;;;1.40;;
35257;SDS011;21385;50.878;8.050;2023-05-20T07:26:56;2.13;;;1.90;;
35257;SDS011;21385;50.878;8.050;2023-05-20T07:29:22;2.45;;;2.13;;
35257;SDS011;21385;50.878;8.050;2023-05-20T07:31:48;2.47;;;1.88;;
35257;SDS011;21385;50.878;8.050;2023-05-20T07:34:13;2.75;;;2.03;;
35257;SDS011;21385;50.878;8.050;2023-05-20T07:36:39;1.60;;;1.50;;
35257;SDS011;21385;50.878;8.050;2023-05-20T07:39:05;2.05;;;1.60;;
35257;SDS011;21385;50.878;8.050;2023-05-20T07:41:32;2.85;;;1.88;;
35257;SDS011;21385;50.878;8.050;2023-05-20T07:43:58;4.72;;;2.38;;
35257;SDS011;21385;50.878;8.050;2023-05-20T07:46:25;1.52;;;1.30;;
35257;SDS011;21385;50.878;8.050;2023-05-20T07:48:51;1.50;;;1.40;;
35257;SDS011;21385;50.878;8.050;2023-05-20T07:51:17;3.78;;;1.80;;
35257;SDS011;21385;50.878;8.050;2023-05-20T07:53:43;3.40;;;1.95;;
35257;SDS011;21385;50.878;8.050;2023-05-20T07:56:08;2.08;;;1.85;;
35257;SDS011;21385;50.878;8.050;2023-05-20T07:58:34;2.22;;;1.80;;
35257;SDS011;21385;50.878;8.050;2023-05-20T08:01:00;4.60;;;1.83;;
35257;SDS011;21385;50.878;8.050;2023-05-20T08:03:25;1.92;;;1.83;;
35257;SDS011;21385;50.878;8.050;2023-05-20T08:05:51;2.25;;;1.77;;
35257;SDS011;21385;50.878;8.050;2023-05-20T08:08:16;3.05;;;2.25;;
35257;SDS011;21385;50.878;8.050;2023-05-20T08:10:42;2.55;;;2.00;;
35257;SDS011;21385;50.878;8.050;2023-05-20T08:13:08;3.05;;;1.80;;
35257;SDS011;21385;50.878;8.050;2023-05-20T08:15:34;2.65;;;1.90;;
35257;SDS011;21385;50.878;8.050;2023-05-20T08:18:00;2.25;;;2.00;;
35257;SDS011;21385;50.878;8.050;2023-05-20T08:20:26;5.32;;;2.20;;
35257;SDS011;21385;50.878;8.050;2023-05-20T08:22:53;2.05;;;1.70;;
35257;SDS011;21385;50.878;8.050;2023-05-20T08:25:19;2.80;;;1.92;;
35257;SDS011;21385;50.878;8.050;2023-05-20T08:27:44;1.58;;;1.42;;
35257;SDS011;21385;50.878;8.050;2023-05-20T08:30:10;1.67;;;1.58;;
35257;SDS011;21385;50.878;8.050;2023-05-20T08:32:36;3.13;;;2.22;;
35257;SDS011;21385;50.878;8.050;2023-05-20T08:35:02;4.00;;;2.03;;
35257;SDS011;21385;50.878;8.050;2023-05-20T08:37:28;2.67;;;1.50;;
35257;SDS011;21385;50.878;8.050;2023-05-20T08:39:54;1.50;;;1.40;;
35257;SDS011;21385;50.878;8.050;2023-05-20T08:42:21;2.25;;;1.50;;
35257;SDS011;21385;50.878;8.050;2023-05-20T08:44:48;2.17;;;1.33;;
35257;SDS011;21385;50.878;8.050;2023-05-20T08:47:16;10.52;;;2.90;;
35257;SDS011;21385;50.878;8.050;2023-05-20T08:49:42;3.55;;;2.28;;
35257;SDS011;21385;50.878;8.050;2023-05-20T08:52:07;2.50;;;2.30;;
35257;SDS011;21385;50.878;8.050;2023-05-20T08:54:42;3.53;;;1.58;;
35257;SDS011;21385;50.878;8.050;2023-05-20T08:57:10;2.72;;;2.15;;
35257;SDS011;21385;50.878;8.050;2023-05-20T08:59:38;2.83;;;2.08;;
35257;SDS011;21385;50.878;8.050;2023-05-20T09:02:05;3.28;;;1.83;;
35257;SDS011;21385;50.878;8.050;2023-05-20T09:04:32;1.83;;;1.60;;
35257;SDS011;21385;50.878;8.050;2023-05-20T09:06:58;2.33;;;1.70;;
35257;SDS011;21385;50.878;8.050;2023-05-20T09:09:24;2.70;;;1.20;;
35257;SDS011;21385;50.878;8.050;2023-05-20T09:11:50;7.00;;;1.90;;
35257;SDS011;21385;50.878;8.050;2023-05-20T09:14:15;2.83;;;1.58;;
35257;SDS011;21385;50.878;8.050;2023-05-20T09:16:41;3.03;;;2.13;;
35257;SDS011;21385;50.878;8.050;2023-05-20T09:19:07;1.73;;;1.63;;
35257;SDS011;21385;50.878;8.050;2023-05-20T09:21:34;3.28;;;2.47;;
35257;SDS011;21385;50.878;8.050;2023-05-20T09:24:03;2.33;;;1.73;;
35257;SDS011;21385;50.878;8.050;2023-05-20T09:26:28;2.38;;;1.73;;
35257;SDS011;21385;50.878;8.050;2023-05-20T09:28:57;3.53;;;2.05;;
35257;SDS011;21385;50.878;8.050;2023-05-20T09:31:30;6.20;;;1.65;;
35257;SDS011;21385;50.878;8.050;2023-05-20T09:33:58;4.43;;;1.63;;
35257;SDS011;21385;50.878;8.050;2023-05-20T09:36:24;1.40;;;1.30;;
35257;SDS011;21385;50.878;8.050;2023-05-20T09:38:53;2.10;;;1.90;;
35257;SDS011;21385;50.878;8.050;2023-05-20T09:41:24;1.52;;;1.42;;
35257;SDS011;21385;50.878;8.050;2023-05-20T09:43:57;1.83;;;1.70;;
35257;SDS011;21385;50.878;8.050;2023-05-20T09:46:24;3.30;;;2.25;;
35257;SDS011;21385;50.878;8.050;2023-05-20T09:48:51;3.97;;;2.08;;
35257;SDS011;21385;50.878;8.050;2023-05-20T09:51:18;4.20;;;2.25;;
35257;SDS011;21385;50.878;8.050;2023-05-20T09:53:44;2.13;;;1.83;;
35257;SDS011;21385;50.878;8.050;2023-05-20T09:56:10;2.25;;;1.75;;
35257;SDS011;21385;50.878;8.050;2023-05-20T09:58:36;5.65;;;2.05;;
35257;SDS011;21385;50.878;8.050;2023-05-20T10:01:02;2.85;;;1.95;;
35257;SDS011;21385;50.878;8.050;2023-05-20T10:03:29;1.85;;;1.45;;
35257;SDS011;21385;50.878;8.050;2023-05-20T10:17:09;6.40;;;1.70;;
35257;SDS011;21385;50.878;8.050;2023-05-20T10:19:48;1.55;;;1.45;;
35257;SDS011;21385;50.878;8.050;2023-05-20T10:22:24;2.33;;;2.05;;
35257;SDS011;21385;50.878;8.050;2023-05-20T10:24:56;4.53;;;2.05;;
35257;SDS011;21385;50.878;8.050;2023-05-20T10:27:23;2.47;;;1.57;;
35257;SDS011;21385;50.878;8.050;2023-05-20T10:29:49;1.52;;;1.42;;
35257;SDS011;21385;50.878;8.050;2023-05-20T10:32:28;2.72;;;1.77;;
35257;SDS011;21385;50.878;8.050;2023-05-20T10:35:00;2.40;;;1.58;;
35257;SDS011;21385;50.878;8.050;2023-05-20T10:37:32;3.40;;;1.92;;
35257;SDS011;21385;50.878;8.050;2023-05-20T10:42:35;3.55;;;2.13;;
35257;SDS011;21385;50.878;8.050;2023-05-20T10:45:01;1.92;;;1.67;;
35257;SDS011;21385;50.878;8.050;2023-05-20T10:47:27;2.20;;;1.88;;
35257;SDS011;21385;50.878;8.050;2023-05-20T10:49:52;5.47;;;2.20;;
35257;SDS011;21385;50.878;8.050;2023-05-20T10:52:18;4.53;;;2.53;;
35257;SDS011;21385;50.878;8.050;2023-05-20T10:54:57;2.45;;;1.80;;
35257;SDS011;21385;50.878;8.050;2023-05-20T10:57:27;1.92;;;1.70;;
35257;SDS011;21385;50.878;8.050;2023-05-20T10:59:54;2.17;;;1.98;;
35257;SDS011;21385;50.878;8.050;2023-05-20T11:02:20;2.10;;;1.90;;
35257;SDS011;21385;50.878;8.050;2023-05-20T11:04:51;3.63;;;1.95;;
35257;SDS011;21385;50.878;8.050;2023-05-20T11:07:26;1.40;;;1.30;;
35257;SDS011;21385;50.878;8.050;2023-05-20T11:09:53;2.05;;;1.70;;
35257;SDS011;21385;50.878;8.050;2023-05-20T11:12:20;1.70;;;1.60;;
35257;SDS011;21385;50.878;8.050;2023-05-20T11:14:47;3.22;;;1.75;;
35257;SDS011;21385;50.878;8.050;2023-05-20T11:17:13;3.03;;;1.83;;
35257;SDS011;21385;50.878;8.050;2023-05-20T11:19:40;1.58;;;1.45;;
35257;SDS011;21385;50.878;8.050;2023-05-20T11:22:06;1.98;;;1.80;;
35257;SDS011;21385;50.878;8.050;2023-05-20T11:24:32;2.58;;;2.30;;
35257;SDS011;21385;50.878;8.050;2023-05-20T11:26:58;3.10;;;1.92;;
35257;SDS011;21385;50.878;8.050;2023-05-20T11:29:25;2.85;;;1.75;;
35257;SDS011;21385;50.878;8.050;2023-05-20T11:31:52;2.20;;;1.70;;
35257;SDS011;21385;50.878;8.050;2023-05-20T11:34:19;2.85;;;2.28;;
35257;SDS011;21385;50.878;8.050;2023-05-20T11:36:46;2.13;;;1.90;;
35257;SDS011;21385;50.878;8.050;2023-05-20T11:39:12;2.45;;;1.75;;
35257;SDS011;21385;50.878;8.050;2023-05-20T11:41:40;2.45;;;1.92;;
35257;SDS011;21385;50.878;8.050;2023-05-20T11:44:09;5.78;;;2.08;;
35257;SDS011;21385;50.878;8.050;2023-05-20T11:46:44;2.08;;;1.83;;
35257;SDS011;21385;50.878;8.050;2023-05-20T11:49:14;2.92;;;1.90;;
35257;SDS011;21385;50.878;8.050;2023-05-20T11:51:41;2.38;;;1.58;;
35257;SDS011;21385;50.878;8.050;2023-05-20T11:54:07;2.30;;;1.90;;
35257;SDS011;21385;50.878;8.050;2023-05-20T11:56:35;4.82;;;1.80;;
35257;SDS011;21385;50.878;8.050;2023-05-20T11:59:02;2.33;;;2.13;;
35257;SDS011;21385;50.878;8.050;2023-05-20T12:01:34;3.05;;;2.25;;
35257;SDS011;21385;50.878;8.050;2023-05-20T12:04:04;4.47;;;2.28;;
35257;SDS011;21385;50.878;8.050;2023-05-20T12:06:33;6.07;;;2.13;;
35257;SDS011;21385;50.878;8.050;2023-05-20T12:09:01;2.10;;;1.67;;
35257;SDS011;21385;50.878;8.050;2023-05-20T12:11:34;2.65;;;2.20;;
35257;SDS011;21385;50.878;8.050;2023-05-20T12:14:02;3.17;;;2.17;;
35257;SDS011;21385;50.878;8.050;2023-05-20T12:16:29;2.40;;;1.90;;
35257;SDS011;21385;50.878;8.050;2023-05-20T12:18:56;2.60;;;2.40;;
35257;SDS011;21385;50.878;8.050;2023-05-20T12:21:21;2.28;;;2.08;;
35257;SDS011;21385;50.878;8.050;2023-05-20T12:23:47;2.60;;;2.25;;
35257;SDS011;21385;50.878;8.050;2023-05-20T12:26:12;2.65;;;2.20;;
35257;SDS011;21385;50.878;8.050;2023-05-20T12:28:38;2.42;;;2.22;;
35257;SDS011;21385;50.878;8.050;2023-05-20T12:31:04;2.35;;;2.08;;
35257;SDS011;21385;50.878;8.050;2023-05-20T12:33:30;2.58;;;2.20;;
35257;SDS011;21385;50.878;8.050;2023-05-20T12:35:55;3.95;;;2.22;;
35257;SDS011;21385;50.878;8.050;2023-05-20T12:38:21;6.78;;;2.70;;
35257;SDS011;21385;50.878;8.050;2023-05-20T12:40:47;7.80;;;2.78;;
35257;SDS011;21385;50.878;8.050;2023-05-20T12:43:12;2.17;;;1.92;;
35257;SDS011;21385;50.878;8.050;2023-05-20T12:45:38;2.28;;;2.10;;
35257;SDS011;21385;50.878;8.050;2023-05-20T12:48:04;4.40;;;2.25;;
35257;SDS011;21385;50.878;8.050;2023-05-20T12:50:31;3.38;;;2.42;;
35257;SDS011;21385;50.878;8.050;2023-05-20T12:52:57;7.47;;;2.53;;
35257;SDS011;21385;50.878;8.050;2023-05-20T12:55:23;3.92;;;2.20;;
35257;SDS011;21385;50.878;8.050;2023-05-20T12:57:48;2.33;;;2.03;;
35257;SDS011;21385;50.878;8.050;2023-05-20T13:00:14;4.20;;;2.40;;
35257;SDS011;21385;50.878;8.050;2023-05-20T13:02:41;2.78;;;2.20;;
35257;SDS011;21385;50.878;8.050;2023-05-20T13:05:07;2.22;;;2.03;;
35257;SDS011;21385;50.878;8.050;2023-05-20T13:07:33;3.33;;;2.55;;
35257;SDS011;21385;50.878;8.050;2023-05-20T13:09:58;3.03;;;2.00;;
35257;SDS011;21385;50.878;8.050;2023-05-20T13:12:24;5.53;;;2.67;;
35257;SDS011;21385;50.878;8.050;2023-05-20T13:14:50;3.67;;;3.15;;
35257;SDS011;21385;50.878;8.050;2023-05-20T13:17:16;7.30;;;2.42;;
35257;SDS011;21385;50.878;8.050;2023-05-20T13:19:42;4.95;;;2.40;;
35257;SDS011;21385;50.878;8.050;2023-05-20T13:22:09;2.80;;;2.35;;
35257;SDS011;21385;50.878;8.050;2023-05-20T13:24:35;2.22;;;2.03;;
35257;SDS011;21385;50.878;8.050;2023-05-20T13:27:01;2.83;;;2.20;;
35257;SDS011;21385;50.878;8.050;2023-05-20T13:29:27;2.15;;;1.92;;
35257;SDS011;21385;50.878;8.050;2023-05-20T13:31:52;2.78;;;2.10;;
35257;SDS011;21385;50.878;8.050;2023-05-20T13:34:18;5.20;;;2.20;;
35257;SDS011;21385;50.878;8.050;2023-05-20T13:36:44;2.65;;;2.40;;
35257;SDS011;21385;50.878;8.050;2023-05-20T13:39:11;2.65;;;2.05;;
35257;SDS011;21385;50.878;8.050;2023-05-20T13:41:38;2.08;;;1.80;;
35257;SDS011;21385;50.878;8.050;2023-05-20T13:44:04;3.35;;;2.08;;
35257;SDS011;21385;50.878;8.050;2023-05-20T13:46:30;4.07;;;2.40;;
35257;SDS011;21385;50.878;8.050;2023-05-20T13:48:55;2.20;;;2.00;;
35257;SDS011;21385;50.878;8.050;2023-05-20T13:51:21;4.80;;;2.38;;
35257;SDS011;21385;50.878;8.050;2023-05-20T13:53:46;4.95;;;2.88;;
35257;SDS011;21385;50.878;8.050;2023-05-20T13:56:12;4.95;;;2.17;;
35257;SDS011;21385;50.878;8.050;2023-05-20T13:58:38;2.50;;;2.30;;
35257;SDS011;21385;50.878;8.050;2023-05-20T14:01:03;2.20;;;2.00;;
35257;SDS011;21385;50.878;8.050;2023-05-20T14:03:30;2.80;;;2.28;;
35257;SDS011;21385;50.878;8.050;2023-05-20T14:05:57;3.55;;;2.38;;
35257;SDS011;21385;50.878;8.050;2023-05-20T14:08:23;4.60;;;2.38;;
35257;SDS011;21385;50.878;8.050;2023-05-20T14:10:49;3.08;;;2.13;;
35257;SDS011;21385;50.878;8.050;2023-05-20T14:13:18;3.40;;;2.20;;
35257;SDS011;21385;50.878;8.050;2023-05-20T14:15:45;2.45;;;2.28;;
35257;SDS011;21385;50.878;8.050;2023-05-20T14:18:11;3.00;;;2.42;;
35257;SDS011;21385;50.878;8.050;2023-05-20T14:20:36;9.23;;;2.15;;
35257;SDS011;21385;50.878;8.050;2023-05-20T14:23:02;2.42;;;2.05;;
35257;SDS011;21385;50.878;8.050;2023-05-20T14:25:28;2.53;;;2.20;;
35257;SDS011;21385;50.878;8.050;2023-05-20T14:27:53;6.20;;;2.85;;
35257;SDS011;21385;50.878;8.050;2023-05-20T14:30:19;2.85;;;2.38;;
35257;SDS011;21385;50.878;8.050;2023-05-20T14:32:44;3.42;;;2.42;;
35257;SDS011;21385;50.878;8.050;2023-05-20T14:35:10;2.05;;;1.95;;
35257;SDS011;21385;50.878;8.050;2023-05-20T14:37:36;3.08;;;2.28;;
35257;SDS011;21385;50.878;8.050;2023-05-20T14:40:02;2.83;;;2.25;;
35257;SDS011;21385;50.878;8.050;2023-05-20T14:42:29;3.33;;;1.85;;
35257;SDS011;21385;50.878;8.050;2023-05-20T14:44:55;3.40;;;1.70;;
35257;SDS011;21385;50.878;8.050;2023-05-20T14:47:20;3.38;;;3.08;;
35257;SDS011;21385;50.878;8.050;2023-05-20T14:49:46;4.35;;;2.42;;
35257;SDS011;21385;50.878;8.050;2023-05-20T14:52:13;5.00;;;2.88;;
35257;SDS011;21385;50.878;8.050;2023-05-20T14:54:40;4.90;;;2.55;;
35257;SDS011;21385;50.878;8.050;2023-05-20T14:57:06;3.97;;;2.28;;